Time;durP1;ratioP1;P1;durP2;ratioP2;P2;SDS_P1;SDS_P2;PMS_P1;PMS_P2;Temp;Humidity;BMP_temperature;BMP_pressure;BME280_temperature;BME280_humidity;BME280_pressure;Samples;Min_cycle;Max_cycle;Signal;HPM_P1;HPM_P2
2023/04/04 00:01:00;;;;;;;4.80;4.40;;;;;;;;;;5000389;28;20185;-82
2023/04/04 00:03:26;;;;;;;11.20;4.25;;;;;;;;;;5000468;28;20177;-80
2023/04/04 00:05:52;;;;;;;5.60;5.15;;;;;;;;;;5012789;28;20221;-81
2023/04/04 00:08:18;;;;;;;5.40;4.90;;;;;;;;;;5027946;28;20224;-81
2023/04/04 00:10:44;;;;;;;8.13;5.73;;;;;;;;;;4993215;28;20209;-81
2023/04/04 00:13:10;;;;;;;7.68;6.95;;;;;;;;;;5027727;28;20415;-81
2023/04/04 00:15:37;;;;;;;4.35;4.05;;;;;;;;;;5015274;28;20188;-82
2023/04/04 00:18:03;;;;;;;5.00;3.83;;;;;;;;;;5025850;28;20325;-81
2023/04/04 00:20:30;;;;;;;3.97;3.78;;;;;;;;;;5003503;28;20224;-80
2023/04/04 00:22:56;;;;;;;4.47;4.13;;;;;;;;;;5003209;28;20201;-81
2023/04/04 00:25:22;;;;;;;4.50;4.10;;;;;;;;;;4998403;28;20209;-80
2023/04/04 00:27:48;;;;;;;4.38;4.18;;;;;;;;;;5017134;28;20194;-81
2023/04/04 00:30:15;;;;;;;6.28;5.60;;;;;;;;;;5004686;28;20189;-81
2023/04/04 00:32:41;;;;;;;7.82;5.28;;;;;;;;;;5016457;28;20184;-82
2023/04/04 00:35:08;;;;;;;6.50;6.03;;;;;;;;;;5008915;28;20294;-80
2023/04/04 00:37:34;;;;;;;7.32;5.20;;;;;;;;;;4986650;28;20657;-80
2023/04/04 00:40:02;;;;;;;5.30;5.03;;;;;;;;;;4979176;28;20197;-80
2023/04/04 00:42:28;;;;;;;7.10;6.70;;;;;;;;;;4981059;28;20212;-80
2023/04/04 00:44:54;;;;;;;4.55;4.30;;;;;;;;;;4984109;28;20209;-80
2023/04/04 00:47:24;;;;;;;8.13;7.57;;;;;;;;;;4995438;28;20209;-80
2023/04/04 00:49:51;;;;;;;6.47;5.00;;;;;;;;;;5013328;28;20192;-83
2023/04/04 00:52:17;;;;;;;7.45;6.65;;;;;;;;;;4999335;28;20420;-81
2023/04/04 00:54:43;;;;;;;3.90;3.70;;;;;;;;;;4968608;28;20181;-81
2023/04/04 00:57:09;;;;;;;6.18;3.95;;;;;;;;;;5007381;28;20500;-81
2023/04/04 00:59:36;;;;;;;5.32;4.93;;;;;;;;;;5016692;28;20181;-81
2023/04/04 01:02:03;;;;;;;3.80;3.65;;;;;;;;;;5010714;28;20196;-80
2023/04/04 01:04:30;;;;;;;11.02;10.32;;;;;;;;;;4989284;28;20197;-80
2023/04/04 01:06:56;;;;;;;5.15;4.80;;;;;;;;;;5003971;28;20789;-80
2023/04/04 01:09:22;;;;;;;13.63;12.57;;;;;;;;;;5003532;28;20272;-80
2023/04/04 01:11:48;;;;;;;4.07;3.85;;;;;;;;;;4993499;28;20178;-80
2023/04/04 01:14:15;;;;;;;7.72;7.30;;;;;;;;;;4991243;28;20186;-79
2023/04/04 01:16:41;;;;;;;3.95;3.65;;;;;;;;;;5006222;28;20183;-81
2023/04/04 01:19:09;;;;;;;4.30;3.80;;;;;;;;;;5018918;28;20182;-81
2023/04/04 01:21:35;;;;;;;4.82;4.55;;;;;;;;;;5011647;28;20276;-80
2023/04/04 01:24:03;;;;;;;5.53;5.32;;;;;;;;;;5005618;28;20189;-82
2023/04/04 01:26:29;;;;;;;3.37;3.27;;;;;;;;;;5028325;28;20184;-80
2023/04/04 01:28:55;;;;;;;3.25;3.15;;;;;;;;;;5023724;28;20435;-81
2023/04/04 01:31:27;;;;;;;3.40;3.13;;;;;;;;;;5010256;28;20182;-82
2023/04/04 01:34:04;;;;;;;3.00;2.80;;;;;;;;;;5003545;28;20190;-82
2023/04/04 01:36:48;;;;;;;2.85;2.70;;;;;;;;;;5026613;28;20199;-81
2023/04/04 01:39:32;;;;;;;6.35;5.55;;;;;;;;;;5006400;28;20332;-80
2023/04/04 01:41:58;;;;;;;4.05;3.85;;;;;;;;;;5008459;28;20190;-81
2023/04/04 01:44:25;;;;;;;8.05;7.55;;;;;;;;;;5013335;28;20202;-81
2023/04/04 01:46:54;;;;;;;7.90;3.35;;;;;;;;;;5023613;28;20217;-81
2023/04/04 01:49:21;;;;;;;7.95;7.18;;;;;;;;;;5010148;28;20201;-80
2023/04/04 01:51:48;;;;;;;2.90;2.77;;;;;;;;;;5016945;28;20230;-81
2023/04/04 01:54:15;;;;;;;3.92;3.72;;;;;;;;;;5019225;28;20450;-79
2023/04/04 01:56:42;;;;;;;3.40;3.30;;;;;;;;;;5021882;28;20236;-80
2023/04/04 01:59:08;;;;;;;4.13;3.28;;;;;;;;;;5021973;28;20188;-81
2023/04/04 02:01:34;;;;;;;3.42;3.33;;;;;;;;;;5016726;28;20208;-82
2023/04/04 02:04:01;;;;;;;3.00;2.80;;;;;;;;;;5016623;28;20229;-82
2023/04/04 02:06:28;;;;;;;3.20;3.00;;;;;;;;;;4993733;28;20276;-80
2023/04/04 02:08:55;;;;;;;5.43;4.60;;;;;;;;;;5020735;28;20200;-81
2023/04/04 02:11:24;;;;;;;3.63;3.42;;;;;;;;;;5020660;28;20173;-81
2023/04/04 02:13:50;;;;;;;3.08;3.08;;;;;;;;;;5018714;28;20177;-81
2023/04/04 02:16:17;;;;;;;3.63;3.63;;;;;;;;;;5026922;28;20219;-80
2023/04/04 02:18:43;;;;;;;4.68;4.43;;;;;;;;;;4999338;28;20182;-81
2023/04/04 02:21:09;;;;;;;4.30;4.05;;;;;;;;;;5026958;28;20259;-81
2023/04/04 02:23:37;;;;;;;4.00;3.70;;;;;;;;;;4995733;28;20186;-81
2023/04/04 02:26:03;;;;;;;5.30;5.10;;;;;;;;;;5004149;28;20229;-83
2023/04/04 02:28:30;;;;;;;4.80;4.68;;;;;;;;;;5013412;28;20205;-81
2023/04/04 02:31:01;;;;;;;3.90;3.80;;;;;;;;;;4986958;28;20615;-81
2023/04/04 02:33:27;;;;;;;5.53;5.13;;;;;;;;;;4990285;28;20258;-80
2023/04/04 02:35:57;;;;;;;3.75;3.65;;;;;;;;;;4995118;28;20668;-81
2023/04/04 02:38:27;;;;;;;4.18;3.88;;;;;;;;;;5014582;28;20220;-81
2023/04/04 02:40:53;;;;;;;5.80;4.20;;;;;;;;;;5001221;28;20389;-81
2023/04/04 02:43:19;;;;;;;5.70;5.30;;;;;;;;;;5009075;28;20190;-81
2023/04/04 02:45:48;;;;;;;7.65;5.53;;;;;;;;;;5009989;28;20477;-82
2023/04/04 02:48:14;;;;;;;5.07;4.88;;;;;;;;;;5011584;28;20181;-81
2023/04/04 02:50:40;;;;;;;5.82;5.47;;;;;;;;;;4995878;28;20197;-82
2023/04/04 02:53:07;;;;;;;8.48;7.97;;;;;;;;;;5009792;28;20204;-81
2023/04/04 02:55:33;;;;;;;6.22;5.10;;;;;;;;;;4993066;28;20191;-81
2023/04/04 02:58:00;;;;;;;7.07;6.47;;;;;;;;;;5010881;28;20189;-82
2023/04/04 03:00:26;;;;;;;6.32;6.00;;;;;;;;;;5001052;28;20603;-81
2023/04/04 03:02:56;;;;;;;3.83;3.60;;;;;;;;;;5007867;28;20201;-81
2023/04/04 03:05:25;;;;;;;5.78;5.13;;;;;;;;;;5021774;28;20450;-81
2023/04/04 03:07:55;;;;;;;7.78;7.00;;;;;;;;;;5006923;28;20197;-81
2023/04/04 03:10:21;;;;;;;4.60;4.18;;;;;;;;;;5001795;28;20188;-81
2023/04/04 03:12:47;;;;;;;5.20;5.10;;;;;;;;;;5014484;28;20625;-83
2023/04/04 03:15:14;;;;;;;7.38;6.85;;;;;;;;;;5033153;28;20211;-82
2023/04/04 03:17:41;;;;;;;4.65;4.43;;;;;;;;;;5027089;28;20161;-82
2023/04/04 03:20:07;;;;;;;6.20;5.80;;;;;;;;;;5019043;28;20535;-83
2023/04/04 03:22:34;;;;;;;7.28;6.13;;;;;;;;;;5008235;28;20209;-78
2023/04/04 03:25:00;;;;;;;5.13;4.93;;;;;;;;;;5014391;28;20192;-82
2023/04/04 03:27:26;;;;;;;17.50;16.17;;;;;;;;;;5028060;28;20194;-81
2023/04/04 03:29:52;;;;;;;5.15;4.82;;;;;;;;;;5026951;28;20204;-82
2023/04/04 03:32:18;;;;;;;7.60;7.10;;;;;;;;;;5013581;28;20243;-81
2023/04/04 03:34:45;;;;;;;6.88;6.68;;;;;;;;;;5025119;28;20194;-81
2023/04/04 03:37:11;;;;;;;9.13;8.45;;;;;;;;;;5020826;28;20178;-79
2023/04/04 03:39:37;;;;;;;10.23;9.55;;;;;;;;;;5021193;28;20192;-80
2023/04/04 03:42:03;;;;;;;8.07;7.78;;;;;;;;;;4995353;28;20182;-82
2023/04/04 03:44:29;;;;;;;13.55;12.70;;;;;;;;;;5001394;28;20221;-82
2023/04/04 03:46:55;;;;;;;6.28;5.97;;;;;;;;;;5034935;28;20180;-83
2023/04/04 03:49:21;;;;;;;11.88;11.00;;;;;;;;;;5012627;28;20197;-81
2023/04/04 03:51:47;;;;;;;6.18;5.57;;;;;;;;;;5021975;28;20208;-79
2023/04/04 03:54:13;;;;;;;9.52;8.90;;;;;;;;;;4995318;28;20196;-82
2023/04/04 03:56:40;;;;;;;5.55;5.25;;;;;;;;;;5028406;28;20440;-82
2023/04/04 03:59:06;;;;;;;6.45;6.05;;;;;;;;;;5002131;28;20201;-80
2023/04/04 04:01:32;;;;;;;4.90;4.70;;;;;;;;;;5003539;28;20196;-82
2023/04/04 04:04:00;;;;;;;6.53;4.40;;;;;;;;;;5011948;28;20188;-84
2023/04/04 04:06:26;;;;;;;5.93;5.43;;;;;;;;;;5033487;28;20179;-82
2023/04/04 04:08:52;;;;;;;7.38;6.80;;;;;;;;;;5003685;28;20178;-82
2023/04/04 04:11:18;;;;;;;4.05;3.95;;;;;;;;;;5031894;28;20207;-82
2023/04/04 04:13:44;;;;;;;7.90;7.43;;;;;;;;;;5009798;28;20206;-79
2023/04/04 04:16:10;;;;;;;7.93;7.53;;;;;;;;;;4997218;28;20211;-80
2023/04/04 04:18:37;;;;;;;6.40;6.10;;;;;;;;;;4980497;28;20281;-81
2023/04/04 04:21:03;;;;;;;8.35;7.85;;;;;;;;;;4982776;28;20197;-82
2023/04/04 04:23:30;;;;;;;6.55;6.32;;;;;;;;;;5012751;28;20203;-83
2023/04/04 04:25:56;;;;;;;6.00;5.70;;;;;;;;;;5003574;28;20244;-80
2023/04/04 04:28:23;;;;;;;11.57;8.98;;;;;;;;;;5013323;28;20193;-81
2023/04/04 04:30:50;;;;;;;10.82;10.13;;;;;;;;;;5015610;28;20194;-80
2023/04/04 04:33:16;;;;;;;13.23;8.65;;;;;;;;;;4995406;28;20205;-82
2023/04/04 04:35:42;;;;;;;11.77;10.57;;;;;;;;;;5004599;28;20224;-82
2023/04/04 04:38:09;;;;;;;11.50;10.65;;;;;;;;;;5000580;28;20202;-82
2023/04/04 04:40:35;;;;;;;8.60;7.88;;;;;;;;;;4993613;28;20336;-82
2023/04/04 04:43:02;;;;;;;14.70;13.90;;;;;;;;;;5005719;28;20223;-82
2023/04/04 04:45:28;;;;;;;29.35;27.02;;;;;;;;;;4988428;28;20220;-80
2023/04/04 04:47:54;;;;;;;16.95;16.05;;;;;;;;;;4988471;28;20223;-83
2023/04/04 04:50:20;;;;;;;21.13;19.88;;;;;;;;;;4993618;28;20240;-82
2023/04/04 04:52:46;;;;;;;14.32;13.43;;;;;;;;;;5015006;28;20204;-82
2023/04/04 04:55:12;;;;;;;20.80;19.50;;;;;;;;;;5002463;28;20204;-82
2023/04/04 04:57:38;;;;;;;17.25;16.05;;;;;;;;;;5009017;28;20247;-80
2023/04/04 05:00:05;;;;;;;14.35;13.50;;;;;;;;;;5000470;28;20570;-80
2023/04/04 05:02:31;;;;;;;77.28;72.35;;;;;;;;;;4972115;28;20610;-78
2023/04/04 05:04:57;;;;;;;16.58;15.45;;;;;;;;;;4979170;28;20898;-78
2023/04/04 05:10:23;;;;;;;16.85;15.60;;;;;;;;;;5003837;23;20240;-91
2023/04/04 05:12:59;;;;;;;12.98;12.18;;;;;;;;;;4976191;28;20178;-91
2023/04/04 05:15:37;;;;;;;13.05;11.75;;;;;;;;;;4985900;28;20197;-91
2023/04/04 05:18:13;;;;;;;48.35;44.83;;;;;;;;;;5009523;28;20179;-92
2023/04/04 05:21:07;;;;;;;14.35;13.35;;;;;;;;;;4991160;28;20197;-91
2023/04/04 05:23:49;;;;;;;12.05;11.25;;;;;;;;;;4955830;28;20182;-89
2023/04/04 05:26:15;;;;;;;9.63;8.95;;;;;;;;;;4973730;28;20206;-87
2023/04/04 05:29:04;;;;;;;15.45;14.32;;;;;;;;;;4999853;28;20243;-91
2023/04/04 05:31:49;;;;;;;24.30;22.45;;;;;;;;;;4972404;28;20210;-92
2023/04/04 05:34:25;;;;;;;;;;;;;;;;;;;;;
2023/04/04 05:36:55;;;;;;;20.80;19.23;;;;;;;;;;4982772;28;20226;-91
2023/04/04 05:39:27;;;;;;;18.00;16.85;;;;;;;;;;4990548;28;20198;-91
2023/04/04 05:41:56;;;;;;;16.33;15.15;;;;;;;;;;4962324;28;20195;-92
2023/04/04 05:44:25;;;;;;;15.23;13.68;;;;;;;;;;4967223;28;20194;-92
2023/04/04 05:47:02;;;;;;;14.20;12.05;;;;;;;;;;4971425;28;20189;-91
2023/04/04 05:49:40;;;;;;;10.77;10.02;;;;;;;;;;4959691;28;20186;-91
2023/04/04 05:52:15;;;;;;;16.98;15.77;;;;;;;;;;4971076;28;20186;-91
2023/04/04 05:54:59;;;;;;;21.02;19.40;;;;;;;;;;4959495;28;20257;-91
2023/04/04 05:57:34;;;;;;;17.63;16.40;;;;;;;;;;4962319;29;20201;-91
2023/04/04 06:00:08;;;;;;;25.52;23.83;;;;;;;;;;4961575;28;20331;-91
2023/04/04 06:02:52;;;;;;;;;;;;;;;;;;;;;
2023/04/04 06:05:28;;;;;;;8.80;8.03;;;;;;;;;;4977105;28;20283;-91
2023/04/04 06:10:46;;;;;;;14.70;14.00;;;;;;;;;;4959814;28;20224;-90
2023/04/04 06:13:25;;;;;;;20.10;18.85;;;;;;;;;;4955354;28;20194;-92
2023/04/04 06:15:52;;;;;;;11.95;11.27;;;;;;;;;;4957405;28;20190;-90
2023/04/04 06:18:18;;;;;;;15.88;14.82;;;;;;;;;;4961473;28;20194;-91
2023/04/04 06:21:12;;;;;;;11.80;11.20;;;;;;;;;;4953539;28;20187;-90
2023/04/04 06:23:43;;;;;;;9.57;8.47;;;;;;;;;;4950852;28;20253;-93
2023/04/04 06:26:09;;;;;;;8.00;7.50;;;;;;;;;;4954167;29;20493;-91
2023/04/04 06:28:56;;;;;;;12.87;11.77;;;;;;;;;;4964864;28;20536;-93
2023/04/04 06:31:33;;;;;;;10.57;9.33;;;;;;;;;;4987846;28;20418;-92
2023/04/04 06:34:00;;;;;;;8.60;7.63;;;;;;;;;;4958058;28;20454;-90
2023/04/04 06:36:26;;;;;;;9.03;8.37;;;;;;;;;;4956029;23;20544;-82
2023/04/04 06:38:51;;;;;;;9.20;8.40;;;7.70;99.90;;;;;;4964881;28;20429;-83
2023/04/04 06:41:18;;;;;;;8.57;7.73;;;;;;;;;;4967617;28;20507;-84
2023/04/04 06:43:45;;;;;;;9.70;8.07;;;;;;;;;;4963811;28;20190;-85
2023/04/04 06:46:11;;;;;;;8.30;6.47;;;;;;;;;;4958890;28;20875;-84
2023/04/04 06:48:37;;;;;;;7.33;6.73;;;;;;;;;;4963748;28;20437;-81
2023/04/04 06:51:07;;;;;;;6.63;6.03;;;;;;;;;;4966194;28;20811;-84
2023/04/04 06:53:33;;;;;;;10.53;7.17;;;;;;;;;;4965628;28;21124;-79
2023/04/04 06:55:59;;;;;;;6.33;5.37;;;;;;;;;;4951130;28;20478;-82
2023/04/04 06:58:25;;;;;;;7.83;5.70;;;;;;;;;;4970156;28;20446;-82
2023/04/04 07:00:52;;;;;;;6.27;5.50;;;;;;;;;;4963258;28;20516;-81
2023/04/04 07:03:19;;;;;;;7.10;6.50;;;;;;;;;;4956817;28;20441;-82
2023/04/04 07:05:45;;;;;;;5.37;5.17;;;;;;;;;;4973138;28;20452;-82
2023/04/04 07:08:11;;;;;;;6.37;5.57;;;;;;;;;;4959220;28;20541;-80
2023/04/04 07:10:37;;;;;;;8.00;6.50;;;;;;;;;;4962542;28;20429;-80
2023/04/04 07:13:03;;;;;;;7.73;7.13;;;;;;;;;;4958158;28;20949;-84
2023/04/04 07:15:29;;;;;;;7.27;6.80;;;;;;;;;;4961369;28;20508;-84
2023/04/04 07:17:55;;;;;;;8.73;8.13;;;;;;;;;;4964440;28;20458;-80
2023/04/04 07:20:22;;;;;;;7.20;6.50;;;;;;;;;;4965115;28;20426;-85
2023/04/04 07:22:48;;;;;;;7.50;6.20;;;;;;;;;;4966486;28;20438;-86
2023/04/04 07:25:14;;;;;;;7.13;6.50;;;;;;;;;;4974961;28;20857;-85
2023/04/04 07:27:40;;;;;;;7.13;6.67;;;;;;;;;;4977709;28;20441;-84
2023/04/04 07:30:07;;;;;;;6.10;5.70;;;;;;;;;;4981237;28;20483;-83
2023/04/04 07:32:33;;;;;;;6.33;5.83;;;;;;;;;;4969749;28;20472;-83
2023/04/04 07:34:59;;;;;;;5.73;5.37;;;;;;;;;;4966857;28;20460;-81
2023/04/04 07:37:28;;;;;;;9.57;6.80;;;;;;;;;;4988649;28;20459;-86
2023/04/04 07:39:53;;;;;;;5.70;5.30;;;14.90;61.70;;;;;;4995099;28;20437;-82
2023/04/04 07:42:22;;;;;;;7.80;6.10;;;15.80;64.60;;;;;;4983500;28;20602;-79
2023/04/04 07:44:51;;;;;;;5.77;5.17;;;16.10;63.50;;;;;;4964219;28;20185;-79
2023/04/04 07:47:17;;;;;;;5.20;4.53;;;15.50;61.70;;;;;;4977587;28;20465;-85
2023/04/04 07:49:43;;;;;;;6.00;4.93;;;15.70;63.40;;;;;;4992173;28;20437;-86
2023/04/04 07:52:09;;;;;;;5.97;4.20;;;;;;;;;;4973185;28;20534;-84
2023/04/04 07:54:35;;;;;;;4.30;4.10;;;;;;;;;;4991184;28;20472;-84
2023/04/04 07:57:05;;;;;;;4.13;3.97;;;;;;;;;;4995502;28;20467;-84
2023/04/04 07:59:31;;;;;;;7.97;6.80;;;;;;;;;;4995101;28;20466;-82
2023/04/04 08:01:58;;;;;;;5.67;5.17;;;;;;;;;;4965823;28;20449;-82
2023/04/04 08:04:24;;;;;;;4.97;4.57;;;;;;;;;;4990921;28;20424;-85
2023/04/04 08:06:50;;;;;;;5.47;4.40;;;;;;;;;;4978228;28;20447;-77
2023/04/04 08:09:16;;;;;;;4.40;4.00;;;;;;;;;;4984221;28;20460;-79
2023/04/04 08:11:42;;;;;;;3.53;3.40;;;;;;;;;;4973911;28;20768;-76
2023/04/04 08:14:11;;;;;;;4.73;4.43;;;;;;;;;;4957484;28;20456;-77
2023/04/04 08:16:38;;;;;;;4.10;3.90;;;;;;;;;;4980192;28;20531;-76
2023/04/04 08:19:04;;;;;;;4.03;3.80;;;13.90;54.90;;;;;;4979064;28;20413;-77
2023/04/04 08:21:29;;;;;;;4.03;3.93;;;15.00;56.40;;;;;;4978179;28;20487;-76
2023/04/04 08:23:55;;;;;;;7.20;4.37;;;15.40;55.50;;;;;;4949659;28;20261;-76
2023/04/04 08:26:21;;;;;;;5.60;3.93;;;16.30;56.10;;;;;;4963247;28;20849;-76
2023/04/04 08:28:47;;;;;;;6.00;4.43;;;16.00;55.50;;;;;;4987901;28;20253;-76
2023/04/04 08:31:13;;;;;;;7.10;4.63;;;16.60;56.60;;;;;;4979548;28;20189;-76
2023/04/04 08:33:38;;;;;;;3.67;3.40;;;15.40;56.60;;;;;;4998426;28;20432;-76
2023/04/04 08:36:04;;;;;;;6.20;5.03;;;16.10;56.30;;;;;;4980059;28;20205;-76
2023/04/04 08:38:29;;;;;;;3.57;2.53;;;14.50;54.60;;;;;;4999984;28;20193;-79
2023/04/04 08:40:55;;;;;;;3.87;3.73;;;14.70;54.60;;;;;;5003585;28;20257;-83
2023/04/04 08:43:23;;;;;;;2.93;2.83;;;14.90;54.30;;;;;;5000544;28;20582;-85
2023/04/04 08:45:53;;;;;;;3.83;3.30;;;15.30;55.10;;;;;;5014643;28;20185;-84
2023/04/04 08:48:20;;;;;;;8.63;3.47;;;14.40;55.10;;;;;;5004549;28;20487;-81
2023/04/04 08:50:46;;;;;;;3.40;3.10;;;16.00;52.20;;;;;;4993946;28;20440;-83
2023/04/04 08:53:12;;;;;;;6.80;6.10;;;16.40;52.20;;;;;;4979817;28;20512;-84
2023/04/04 08:55:38;;;;;;;2.60;2.10;;;16.50;51.60;;;;;;4993007;28;20208;-80
2023/04/04 08:58:04;;;;;;;4.23;2.40;;;;;;;;;;4987156;28;20542;-83
2023/04/04 09:00:31;;;;;;;2.50;2.50;;;;;;;;;;4987282;28;20208;-83
2023/04/04 09:02:57;;;;;;;3.17;2.97;;;;;;;;;;4991536;28;20436;-82
2023/04/04 09:05:24;;;;;;;6.30;3.10;;;15.90;47.80;;;;;;4986885;28;20437;-85
2023/04/04 09:07:53;;;;;;;3.80;3.10;;;17.20;54.20;;;;;;4989275;28;20486;-81
2023/04/04 09:10:19;;;;;;;4.07;3.47;;;17.40;54.20;;;;;;4981165;28;20874;-84
2023/04/04 09:12:47;;;;;;;7.43;3.53;;;17.10;47.00;;;;;;4991502;28;20937;-82
2023/04/04 09:15:13;;;;;;;2.90;2.80;;;;;;;;;;4968452;28;20473;-81
2023/04/04 09:17:39;;;;;;;4.43;4.03;;;;;;;;;;4987296;28;20464;-80
2023/04/04 09:20:32;;;;;;;3.23;3.03;;;16.20;46.30;;;;;;4980557;28;20445;-83
2023/04/04 09:22:58;;;;;;;3.30;3.00;;;;;;;;;;4989917;28;20439;-77
2023/04/04 09:25:25;;;;;;;2.97;2.83;;;;;;;;;;4980315;28;20441;-79
2023/04/04 09:27:52;;;;;;;3.70;3.20;;;17.40;53.80;;;;;;4985438;28;20447;-76
2023/04/04 09:30:18;;;;;;;5.03;4.53;;;;;;;;;;4980972;28;21138;-82
2023/04/04 09:32:44;;;;;;;4.73;3.50;;;;;;;;;;4991380;28;20432;-84
2023/04/04 09:35:12;;;;;;;18.53;14.37;;;;;;;;;;4977266;28;20526;-76
2023/04/04 09:37:40;;;;;;;5.10;4.40;;;;;;;;;;4983616;28;20463;-78
2023/04/04 09:40:07;;;;;;;3.03;2.70;;;;;;;;;;4960979;28;20466;-79
2023/04/04 09:42:33;;;;;;;2.50;2.50;;;;;;;;;;4975019;28;20751;-75
2023/04/04 09:44:59;;;;;;;6.17;3.13;;;;;;;;;;4978326;28;21146;-77
2023/04/04 09:47:29;;;;;;;3.00;2.90;;;17.50;44.10;;;;;;4988794;28;20479;-78
2023/04/04 09:50:03;;;;;;;3.10;3.00;;;18.10;48.90;;;;;;4981437;28;21032;-83
2023/04/04 09:52:35;;;;;;;3.63;3.07;;;17.20;54.80;;;;;;4986220;28;20443;-84
2023/04/04 09:55:02;;;;;;;4.97;3.33;;;;;;;;;;4982278;28;20479;-85
2023/04/04 09:57:29;;;;;;;2.83;2.77;;;;;;;;;;5010602;28;20424;-82
2023/04/04 10:00:03;;;;;;;3.50;3.20;;;17.60;43.90;;;;;;5005664;28;20791;-83
2023/04/04 10:02:30;;;;;;;2.90;2.80;;;18.20;44.10;;;;;;4993006;28;20436;-84
2023/04/04 10:04:56;;;;;;;3.90;2.87;;;18.00;43.20;;;;;;4991083;28;20440;-86
2023/04/04 10:07:22;;;;;;;3.50;3.20;;;;;;;;;;5002315;28;20480;-84
2023/04/04 10:09:51;;;;;;;3.63;3.40;;;;;;;;;;4990186;28;20452;-85
2023/04/04 10:12:20;;;;;;;3.27;3.07;;;;;;;;;;4986602;28;20433;-85
2023/04/04 10:14:47;;;;;;;4.00;2.80;;;;;;;;;;4985285;28;20499;-85
2023/04/04 10:17:13;;;;;;;3.20;3.00;;;;;;;;;;4990625;28;20495;-84
2023/04/04 10:19:40;;;;;;;3.10;3.00;;;;;;;;;;4980237;28;21015;-84
2023/04/04 10:22:06;;;;;;;3.93;3.63;;;;;;;;;;4991526;28;20512;-85
2023/04/04 10:24:32;;;;;;;4.20;4.00;;;;;;;;;;4990008;28;20619;-84
2023/04/04 10:26:59;;;;;;;4.97;3.67;;;;;;;;;;5005576;28;20419;-83
2023/04/04 10:29:25;;;;;;;10.50;4.17;;;;;;;;;;4987640;28;20440;-81
2023/04/04 10:32:00;;;;;;;3.20;3.10;;;;;;;;;;4987192;28;20531;-81
2023/04/04 10:34:47;;;;;;;3.33;3.10;;;;;;;;;;4991229;28;20447;-81
2023/04/04 10:37:15;;;;;;;4.40;3.70;;;;;;;;;;4985731;28;20956;-80
2023/04/04 10:40:00;;;;;;;3.30;2.93;;;;;;;;;;4962075;28;20823;-82
2023/04/04 10:42:30;;;;;;;3.20;3.00;;;;;;;;;;4969446;28;20863;-81
2023/04/04 10:44:56;;;;;;;3.30;3.00;;;;;;;;;;4961311;28;20507;-77
2023/04/04 10:47:25;;;;;;;7.47;3.20;;;;;;;;;;4955909;28;20480;-77
2023/04/04 10:49:51;;;;;;;4.23;4.00;;;18.60;39.40;;;;;;4985675;28;20467;-80
2023/04/04 10:52:22;;;;;;;3.80;3.50;;;17.80;40.90;;;;;;5009269;28;20491;-82
2023/04/04 10:54:56;;;;;;;3.50;3.17;;;18.20;42.20;;;;;;4974053;28;20515;-81
2023/04/04 10:57:24;;;;;;;3.00;2.87;;;18.80;42.20;;;;;;4975310;28;20488;-79
2023/04/04 11:00:00;;;;;;;2.97;2.87;;;;;;;;;;4983903;28;20595;-82
2023/04/04 11:02:45;;;;;;;4.17;3.87;;;;;;;;;;4986898;28;20435;-77
2023/04/04 11:05:17;;;;;;;3.40;2.60;;;;;;;;;;4954529;28;20552;-77
2023/04/04 11:07:45;;;;;;;3.40;3.20;;;;;;;;;;4997287;28;20881;-80
2023/04/04 11:10:15;;;;;;;3.83;3.50;;;;;;;;;;4991311;28;20449;-80
2023/04/04 11:12:44;;;;;;;2.90;2.77;;;;;;;;;;4982445;28;20429;-78
2023/04/04 11:15:11;;;;;;;5.60;5.10;;;;;;;;;;4992456;28;20486;-81
2023/04/04 11:17:51;;;;;;;3.83;3.53;;;;;;;;;;4986491;28;20439;-81
2023/04/04 11:20:18;;;;;;;3.00;2.90;;;;;;;;;;4981639;28;20483;-84
2023/04/04 11:22:47;;;;;;;3.03;2.83;;;;;;;;;;4981876;28;20438;-80
2023/04/04 11:25:31;;;;;;;3.17;3.00;;;;;;;;;;4983434;28;20479;-80
2023/04/04 11:27:58;;;;;;;3.10;2.90;;;;;;;;;;4996047;28;20435;-80
2023/04/04 11:30:27;;;;;;;3.30;3.10;;;;;;;;;;4986736;28;20894;-82
2023/04/04 11:32:56;;;;;;;4.60;4.30;;;;;;;;;;4981367;28;20440;-82
2023/04/04 11:35:22;;;;;;;2.40;2.30;;;18.20;38.80;;;;;;4989476;28;20471;-82
2023/04/04 11:37:52;;;;;;;2.57;2.40;;;;;;;;;;4992242;28;20478;-81
2023/04/04 11:40:18;;;;;;;2.77;2.67;;;;;;;;;;4972181;28;20467;-77
2023/04/04 11:42:44;;;;;;;3.10;2.90;;;;;;;;;;4979072;28;20454;-82
2023/04/04 11:45:17;;;;;;;3.20;3.00;;;;;;;;;;5003538;28;20412;-86
2023/04/04 11:47:46;;;;;;;3.30;3.10;;;;;;;;;;4978949;28;20453;-80
2023/04/04 11:50:13;;;;;;;3.00;2.90;;;;;;;;;;4986952;28;20404;-80
2023/04/04 11:52:41;;;;;;;4.63;4.33;;;19.30;40.20;;;;;;4982171;28;20459;-81
2023/04/04 11:55:17;;;;;;;3.57;3.23;;;;;;;;;;4964401;28;20555;-80
2023/04/04 11:57:43;;;;;;;3.33;3.20;;;;;;;;;;4980761;28;20739;-77
2023/04/04 12:00:14;;;;;;;3.00;2.90;;;;;;;;;;4986764;28;20590;-81
2023/04/04 12:02:41;;;;;;;3.50;3.07;;;;;;;;;;4972700;28;20436;-80
2023/04/04 12:05:07;;;;;;;2.83;2.83;;;;;;;;;;4974337;28;20421;-79
2023/04/04 12:07:34;;;;;;;2.80;2.70;;;;;;;;;;4975147;28;21410;-80
2023/04/04 12:10:00;;;;;;;4.43;4.17;;;;;;;;;;4971478;28;20480;-80
2023/04/04 12:12:29;;;;;;;3.73;3.53;;;;;;;;;;4981550;28;21410;-80
2023/04/04 12:14:55;;;;;;;3.53;3.50;;;;;;;;;;4983049;28;20468;-79
2023/04/04 12:17:21;;;;;;;4.43;2.80;;;;;;;;;;4976747;28;21000;-80
2023/04/04 12:19:47;;;;;;;4.60;4.30;;;;;;;;;;4986713;28;20408;-80
2023/04/04 12:22:13;;;;;;;4.80;4.53;;;;;;;;;;4969294;28;20436;-82
2023/04/04 12:24:40;;;;;;;5.87;5.00;;;;;;;;;;4975942;28;20455;-79
2023/04/04 12:27:06;;;;;;;4.67;4.27;;;;;;;;;;4979004;28;20444;-80
2023/04/04 12:29:35;;;;;;;3.53;3.23;;;17.20;56.10;;;;;;4974369;28;20460;-80
2023/04/04 12:32:01;;;;;;;2.40;2.40;;;;;;;;;;4987706;28;20694;-83
2023/04/04 12:34:29;;;;;;;3.07;2.97;;;;;;;;;;4970402;28;20440;-80
2023/04/04 12:36:56;;;;;;;3.73;3.47;;;;;;;;;;4977571;28;20494;-79
2023/04/04 12:39:22;;;;;;;3.40;3.20;;;;;;;;;;4968591;28;20440;-79
2023/04/04 12:41:52;;;;;;;3.30;3.20;;;;;;;;;;4975646;28;20445;-79
2023/04/04 12:44:38;;;;;;;2.90;2.83;;;;;;;;;;4965276;28;20436;-79
2023/04/04 12:47:09;;;;;;;3.90;3.80;;;;;;;;;;4968003;28;20607;-80
2023/04/04 12:49:38;;;;;;;3.93;3.60;;;;;;;;;;4967940;28;20437;-79
2023/04/04 12:52:06;;;;;;;3.97;3.40;;;;;;;;;;4970096;28;21008;-79
2023/04/04 12:54:32;;;;;;;4.13;3.83;;;;;;;;;;4966779;28;20464;-79
2023/04/04 12:56:59;;;;;;;4.30;4.00;;;;;;;;;;4974060;28;20428;-77
2023/04/04 12:59:29;;;;;;;3.20;3.00;;;;;;;;;;4972537;28;20417;-79
2023/04/04 13:01:55;;;;;;;4.13;3.83;;;;;;;;;;4963295;28;20448;-79
2023/04/04 13:04:25;;;;;;;3.90;3.50;;;;;;;;;;4981623;28;20428;-78
2023/04/04 13:06:51;;;;;;;3.40;3.23;;;;;;;;;;4983126;28;20918;-83
2023/04/04 13:09:18;;;;;;;3.07;2.87;;;;;;;;;;4981975;28;20513;-78
2023/04/04 13:12:01;;;;;;;2.87;2.67;;;;;;;;;;4974809;28;21016;-79
2023/04/04 13:14:48;;;;;;;3.10;3.00;;;;;;;;;;4970697;28;20965;-78
2023/04/04 13:17:14;;;;;;;3.70;3.60;;;;;;;;;;4971504;28;20444;-81
2023/04/04 13:19:40;;;;;;;3.10;3.00;;;;;;;;;;4975356;28;20919;-78
2023/04/04 13:22:08;;;;;;;4.90;4.60;;;;;;;;;;4980445;28;20463;-80
2023/04/04 13:24:34;;;;;;;3.23;3.03;;;;;;;;;;4969485;28;20805;-78
2023/04/04 13:27:00;;;;;;;3.67;3.17;;;;;;;;;;4969710;28;20433;-81
2023/04/04 13:29:26;;;;;;;3.93;3.83;;;;;;;;;;4971110;28;20926;-78
2023/04/04 13:31:52;;;;;;;4.60;3.73;;;;;;;;;;4970414;28;20994;-77
2023/04/04 13:34:21;;;;;;;4.80;3.33;;;;;;;;;;4966177;28;20450;-76
2023/04/04 13:36:48;;;;;;;3.10;3.10;;;;;;;;;;4967039;28;20477;-80
2023/04/04 13:39:14;;;;;;;3.50;3.30;;;;;;;;;;4975289;28;20448;-80
2023/04/04 13:41:40;;;;;;;3.80;3.50;;;;;;;;;;4969862;28;20440;-81
2023/04/04 13:44:06;;;;;;;4.47;4.20;;;;;;;;;;4973698;28;20464;-80
2023/04/04 13:46:32;;;;;;;3.03;3.03;;;;;;;;;;4969372;28;20449;-77
2023/04/04 13:48:58;;;;;;;3.23;3.00;;;;;;;;;;4977935;28;20478;-80
2023/04/04 13:51:25;;;;;;;3.97;3.70;;;;;;;;;;4978063;28;20436;-83
2023/04/04 13:53:51;;;;;;;4.80;4.50;;;;;;;;;;4991179;28;20823;-78
2023/04/04 13:56:17;;;;;;;3.60;3.40;;;;;;;;;;4971226;28;20868;-81
2023/04/04 13:58:43;;;;;;;3.93;3.63;;;;;;;;;;4988223;28;20527;-82
2023/04/04 14:01:09;;;;;;;3.97;3.70;;;;;;;;;;4984050;28;20432;-77
2023/04/04 14:03:36;;;;;;;4.20;4.00;;;;;;;;;;4982024;28;20439;-78
2023/04/04 14:06:02;;;;;;;3.73;3.50;;;;;;;;;;4983049;28;20949;-78
2023/04/04 14:08:29;;;;;;;4.30;4.10;;;;;;;;;;4984710;28;20425;-79
2023/04/04 14:10:55;;;;;;;8.63;5.20;;;;;;;;;;4982258;28;20450;-83
2023/04/04 14:13:21;;;;;;;5.63;5.33;;;;;;;;;;4983993;28;20460;-84
2023/04/04 14:15:48;;;;;;;4.70;4.40;;;;;;;;;;4995272;28;20472;-83
2023/04/04 14:18:15;;;;;;;3.90;3.80;;;;;;;;;;4994152;28;20925;-85
2023/04/04 14:20:41;;;;;;;4.27;4.07;;;;;;;;;;4983746;28;20556;-83
2023/04/04 14:23:08;;;;;;;4.90;4.60;;;;;;;;;;4988852;28;20935;-83
2023/04/04 14:25:34;;;;;;;3.93;3.63;;;;;;;;;;4986534;28;20440;-84
2023/04/04 14:28:00;;;;;;;3.77;3.57;;;;;;;;;;5000170;28;20489;-83
2023/04/04 14:30:27;;;;;;;4.77;4.47;;;;;;;;;;4989901;28;20596;-82
2023/04/04 14:32:53;;;;;;;4.67;4.33;;;;;;;;;;4976219;28;20502;-83
2023/04/04 14:35:19;;;;;;;4.10;3.90;;;;;;;;;;5000018;28;20547;-79
2023/04/04 14:37:45;;;;;;;4.50;3.90;;;;;;;;;;4999373;28;20439;-85